Time;durP1;ratioP1;P1;durP2;ratioP2;P2;SDS_P1;SDS_P2;PMS_P1;PMS_P2;Temp;Humidity;BMP_temperature;BMP_pressure;BME280_temperature;BME280_humidity;BME280_pressure;Samples;Min_cycle;Max_cycle;Signal;HPM_P1;HPM_P2
2021/12/15 00:00:58;;;;;;;70.28;28.25;;;9.70;99.90;;;;;;5062066;28;20109;-67
2021/12/15 00:03:25;;;;;;;80.85;28.65;;;9.70;99.90;;;;;;5069821;28;20116;-67
2021/12/15 00:05:51;;;;;;;71.32;29.23;;;9.70;99.90;;;;;;5056284;28;20052;-67
2021/12/15 00:08:17;;;;;;;64.10;28.73;;;9.70;99.90;;;;;;5066671;28;20183;-67
2021/12/15 00:10:44;;;;;;;67.80;28.17;;;9.80;99.90;;;;;;5039779;28;20483;-66
2021/12/15 00:13:12;;;;;;;70.13;27.27;;;9.70;99.90;;;;;;5069011;28;20414;-66
2021/12/15 00:15:39;;;;;;;73.20;29.75;;;9.70;99.90;;;;;;5057110;28;20303;-66
2021/12/15 00:18:05;;;;;;;70.47;28.50;;;9.80;99.90;;;;;;5066193;28;20129;-67
2021/12/15 00:20:32;;;;;;;79.65;29.60;;;9.70;99.90;;;;;;5063975;28;20077;-66
2021/12/15 00:22:59;;;;;;;67.35;28.80;;;9.80;99.90;;;;;;5065873;28;20043;-66
2021/12/15 00:25:27;;;;;;;70.88;28.60;;;9.80;99.90;;;;;;5064871;28;20112;-67
2021/12/15 00:27:53;;;;;;;70.43;29.15;;;9.70;99.90;;;;;;5065373;28;20383;-67
2021/12/15 00:30:21;;;;;;;70.25;30.08;;;9.80;99.90;;;;;;5058413;28;20403;-67
2021/12/15 00:32:47;;;;;;;80.70;28.65;;;9.70;99.90;;;;;;5063399;28;20134;-65
2021/12/15 00:35:13;;;;;;;65.30;28.25;;;9.70;99.90;;;;;;5059119;28;20083;-67
2021/12/15 00:37:38;;;;;;;76.95;29.35;;;9.70;99.90;;;;;;5039211;28;20052;-64
2021/12/15 00:40:08;;;;;;;70.22;28.60;;;9.80;99.90;;;;;;5063567;28;20059;-66
2021/12/15 00:42:34;;;;;;;70.75;28.42;;;9.70;99.90;;;;;;5064281;28;20045;-66
2021/12/15 00:45:00;;;;;;;72.95;28.83;;;9.70;99.90;;;;;;5067868;28;20124;-65
2021/12/15 00:47:26;;;;;;;63.58;26.10;;;9.70;99.90;;;;;;5077360;28;20059;-67
2021/12/15 00:49:52;;;;;;;58.58;27.40;;;9.80;99.90;;;;;;5050044;28;20041;-66
2021/12/15 00:52:18;;;;;;;69.22;26.48;;;9.80;99.90;;;;;;5067203;28;20105;-66
2021/12/15 00:54:44;;;;;;;69.75;25.70;;;9.80;99.90;;;;;;5067129;28;20054;-67
2021/12/15 00:57:10;;;;;;;66.88;29.55;;;9.80;99.90;;;;;;5065535;28;20144;-67
2021/12/15 00:59:36;;;;;;;73.53;27.60;;;9.80;99.90;;;;;;5059095;28;20464;-66
2021/12/15 01:02:02;;;;;;;64.35;26.80;;;10.10;99.90;;;;;;5057337;28;20139;-66
2021/12/15 01:04:30;;;;;;;63.50;26.27;;;9.80;99.90;;;;;;5065371;28;20068;-67
2021/12/15 01:06:58;;;;;;;58.05;25.50;;;9.80;99.90;;;;;;5060149;28;20049;-67
2021/12/15 01:09:29;;;;;;;63.05;28.25;;;9.80;99.90;;;;;;5059873;28;20376;-67
2021/12/15 01:19:49;;;;;;;68.50;27.27;;;9.80;99.90;;;;;;5067527;28;20057;-67
2021/12/15 01:22:30;;;;;;;68.15;25.27;;;9.80;99.90;;;;;;5062902;28;20049;-68
2021/12/15 01:25:07;;;;;;;57.50;25.20;;;9.80;99.90;;;;;;5067429;28;20051;-67
2021/12/15 01:27:33;;;;;;;64.75;27.08;;;9.80;99.90;;;;;;5065919;28;20079;-66
2021/12/15 01:29:58;;;;;;;62.38;26.27;;;9.80;99.90;;;;;;5065662;28;20102;-67
2021/12/15 01:32:24;;;;;;;62.38;27.25;;;9.80;99.90;;;;;;5062169;28;20467;-67
2021/12/15 01:34:50;;;;;;;65.75;26.73;;;9.80;99.90;;;;;;5061613;28;20124;-67
2021/12/15 01:37:17;;;;;;;61.58;26.52;;;9.80;99.90;;;;;;5065882;28;20092;-67
2021/12/15 01:39:44;;;;;;;63.75;28.42;;;9.80;99.90;;;;;;5055127;28;20761;-66
2021/12/15 01:42:10;;;;;;;73.93;27.73;;;9.90;99.90;;;;;;5059760;28;20678;-66
2021/12/15 01:47:20;;;;;;;70.97;28.77;;;9.80;99.90;;;;;;5070021;28;20041;-67
2021/12/15 01:49:50;;;;;;;69.90;28.65;;;9.80;99.90;;;;;;5059969;28;20048;-67
2021/12/15 01:52:23;;;;;;;61.17;27.55;;;9.80;99.90;;;;;;5067816;28;20547;-68
2021/12/15 01:54:56;;;;;;;67.50;27.42;;;9.80;99.90;;;;;;5071069;28;20082;-67
2021/12/15 01:57:25;;;;;;;71.18;28.27;;;9.80;99.90;;;;;;5062695;28;20494;-67
2021/12/15 01:59:52;;;;;;;60.80;27.60;;;9.80;99.90;;;;;;5068453;28;20106;-66
2021/12/15 02:02:19;;;;;;;72.72;30.95;;;9.80;99.90;;;;;;5074299;28;20044;-67
2021/12/15 02:04:45;;;;;;;76.25;31.02;;;9.80;99.90;;;;;;5068281;28;20036;-67
2021/12/15 02:07:16;;;;;;;70.90;29.17;;;9.80;99.90;;;;;;5072946;28;20079;-67
2021/12/15 02:12:09;;;;;;;71.15;30.58;;;9.80;99.90;;;;;;5066263;28;20048;-67
2021/12/15 02:14:35;;;;;;;75.13;30.63;;;9.80;99.90;;;;;;5071508;28;20681;-67
2021/12/15 02:17:00;;;;;;;70.43;30.42;;;9.80;99.90;;;;;;5067877;28;20102;-67
2021/12/15 02:19:27;;;;;;;69.32;28.60;;;9.80;99.90;;;;;;5066814;28;20052;-66
2021/12/15 02:21:54;;;;;;;67.90;29.92;;;9.80;99.90;;;;;;5069550;28;20049;-66
2021/12/15 02:24:20;;;;;;;72.68;30.60;;;9.80;99.90;;;;;;5064542;28;20090;-66
2021/12/15 02:26:50;;;;;;;75.60;31.40;;;9.90;99.90;;;;;;5065209;28;20405;-67
2021/12/15 02:29:17;;;;;;;80.05;29.70;;;9.90;99.90;;;;;;5071232;28;20112;-69
2021/12/15 02:39:47;;;;;;;64.63;28.85;;;9.90;99.90;;;;;;5060430;28;20052;-66
2021/12/15 02:42:13;;;;;;;81.65;29.35;;;10.10;99.90;;;;;;5071505;28;20102;-66
2021/12/15 02:44:43;;;;;;;62.78;28.55;;;9.90;99.90;;;;;;5066693;28;20375;-66
2021/12/15 02:47:13;;;;;;;80.13;30.60;;;9.90;99.90;;;;;;5066433;28;20447;-66
2021/12/15 02:49:40;;;;;;;67.47;29.98;;;9.90;99.90;;;;;;5069874;28;20037;-66
2021/12/15 02:52:06;;;;;;;68.00;29.75;;;10.00;99.90;;;;;;5068647;28;20060;-66
2021/12/15 02:54:33;;;;;;;70.20;29.75;;;9.90;99.90;;;;;;5058741;28;20059;-66
2021/12/15 02:57:05;;;;;;;70.20;30.48;;;9.90;99.90;;;;;;5064181;28;20120;-66
2021/12/15 02:59:42;;;;;;;72.13;29.52;;;9.90;99.90;;;;;;5067438;28;20043;-67
2021/12/15 03:02:23;;;;;;;72.00;28.83;;;9.90;99.90;;;;;;5065907;28;20079;-66
2021/12/15 03:05:03;;;;;;;74.78;31.70;;;9.90;99.90;;;;;;5059506;28;20044;-69
2021/12/15 03:07:39;;;;;;;73.38;31.30;;;9.90;99.90;;;;;;5065001;28;20100;-66
2021/12/15 03:15:37;;;;;;;72.97;31.00;;;9.90;99.90;;;;;;5062032;28;20068;-66
2021/12/15 03:18:09;;;;;;;75.70;31.15;;;9.90;99.90;;;;;;5046983;28;20091;-68
2021/12/15 03:20:45;;;;;;;68.10;30.08;;;9.90;99.90;;;;;;5066200;28;20067;-65
2021/12/15 03:23:14;;;;;;;71.15;31.35;;;9.90;99.90;;;;;;5065485;28;20193;-66
2021/12/15 03:25:40;;;;;;;70.50;32.30;;;9.90;99.90;;;;;;5067711;28;20063;-67
2021/12/15 03:33:53;;;;;;;71.97;33.42;;;9.90;99.90;;;;;;5060159;28;20060;-66
2021/12/15 03:36:35;;;;;;;71.78;31.50;;;9.90;99.90;;;;;;5060612;28;20090;-67
2021/12/15 03:39:03;;;;;;;69.53;33.60;;;9.90;99.90;;;;;;5068513;28;20068;-67
2021/12/15 03:41:28;;;;;;;70.85;31.67;;;9.60;99.90;;;;;;5057423;28;20095;-67
2021/12/15 03:43:55;;;;;;;67.63;31.90;;;9.90;99.90;;;;;;5065154;28;21073;-67
2021/12/15 03:46:21;;;;;;;72.85;32.72;;;9.90;99.90;;;;;;5065954;28;20044;-66
2021/12/15 03:48:48;;;;;;;69.68;32.25;;;9.90;99.90;;;;;;5066074;28;20035;-67
2021/12/15 03:51:14;;;;;;;70.07;33.28;;;9.90;99.90;;;;;;5065374;28;20048;-66
2021/12/15 03:53:42;;;;;;;69.13;33.35;;;9.90;99.90;;;;;;5069744;28;20041;-66
2021/12/15 03:56:11;;;;;;;68.13;32.55;;;9.90;99.90;;;;;;5068330;28;20172;-67
2021/12/15 03:58:37;;;;;;;75.97;33.50;;;9.90;99.90;;;;;;5065184;28;20040;-67
2021/12/15 04:01:07;;;;;;;72.18;33.92;;;9.90;99.90;;;;;;5062727;28;20533;-65
2021/12/15 04:03:38;;;;;;;78.05;34.17;;;9.90;99.90;;;;;;5061865;28;20044;-68
2021/12/15 04:06:08;;;;;;;74.43;30.98;;;9.90;99.90;;;;;;5070748;28;20723;-66
2021/12/15 04:08:35;;;;;;;77.20;32.80;;;9.90;99.90;;;;;;5061669;28;20144;-67
2021/12/15 04:11:04;;;;;;;69.78;32.95;;;9.90;99.90;;;;;;5061411;28;20055;-66
2021/12/15 04:13:30;;;;;;;67.90;33.15;;;9.90;99.90;;;;;;5047263;28;20056;-66
2021/12/15 04:16:04;;;;;;;72.07;31.20;;;9.90;99.90;;;;;;5062360;28;20383;-66
2021/12/15 04:18:30;;;;;;;66.90;33.10;;;9.90;99.90;;;;;;5065953;28;20059;-67
2021/12/15 04:20:56;;;;;;;68.95;32.33;;;9.90;99.90;;;;;;5066022;28;20036;-67
2021/12/15 04:23:22;;;;;;;77.72;32.60;;;9.90;99.90;;;;;;5063459;28;20045;-65
2021/12/15 04:25:51;;;;;;;69.78;31.25;;;9.90;99.90;;;;;;5062778;28;20406;-66
2021/12/15 04:28:20;;;;;;;75.45;31.75;;;9.90;99.90;;;;;;5059487;28;20440;-67
2021/12/15 04:30:53;;;;;;;65.90;31.35;;;9.90;99.90;;;;;;5060161;28;20040;-65
2021/12/15 04:33:31;;;;;;;69.35;31.75;;;9.90;99.90;;;;;;5063712;28;20033;-67
2021/12/15 04:36:01;;;;;;;;;;;9.90;99.90;;;;;;5061601;28;20079;-67
2021/12/15 04:38:28;;;;;;;73.18;32.28;;;10.00;99.90;;;;;;5054456;28;20016;-66
2021/12/15 04:40:56;;;;;;;72.45;30.40;;;9.90;99.90;;;;;;5059363;28;20514;-66
2021/12/15 04:43:22;;;;;;;60.80;30.03;;;9.90;99.90;;;;;;5058651;28;20482;-66
2021/12/15 04:45:48;;;;;;;62.63;29.13;;;9.90;99.90;;;;;;5067975;28;20283;-66
2021/12/15 04:48:14;;;;;;;73.65;30.50;;;10.00;99.90;;;;;;5067245;28;20029;-67
2021/12/15 04:50:41;;;;;;;63.13;30.27;;;9.90;99.90;;;;;;5066237;28;20048;-66
2021/12/15 04:53:08;;;;;;;65.30;29.83;;;9.90;99.90;;;;;;5061340;28;20040;-67
2021/12/15 04:55:37;;;;;;;62.83;30.58;;;9.90;99.90;;;;;;5065562;28;20052;-67
2021/12/15 04:58:05;;;;;;;64.22;29.92;;;9.90;99.90;;;;;;5056873;28;20032;-67
2021/12/15 05:00:34;;;;;;;63.97;29.53;;;9.90;99.90;;;;;;5056036;28;21496;-66
2021/12/15 05:03:00;;;;;;;66.43;29.48;;;9.90;99.90;;;;;;5060440;28;20039;-65
2021/12/15 05:05:28;;;;;;;66.30;29.67;;;9.90;99.90;;;;;;5058881;28;20037;-67
2021/12/15 05:07:55;;;;;;;66.18;29.13;;;9.90;99.90;;;;;;5071523;28;20064;-66
2021/12/15 05:10:23;;;;;;;63.13;29.20;;;10.00;99.90;;;;;;5060099;28;20121;-67
2021/12/15 05:12:49;;;;;;;70.60;30.02;;;9.90;99.90;;;;;;5060991;28;20068;-66
2021/12/15 05:15:16;;;;;;;67.82;29.63;;;9.80;99.90;;;;;;5064847;28;20049;-68
2021/12/15 05:17:41;;;;;;;64.43;28.70;;;9.80;99.90;;;;;;5056809;28;20105;-67
2021/12/15 05:20:09;;;;;;;68.45;30.20;;;9.90;99.90;;;;;;5062355;28;20072;-66
2021/12/15 05:22:36;;;;;;;72.65;29.27;;;9.90;99.90;;;;;;5066653;28;20053;-67
2021/12/15 05:25:05;;;;;;;64.53;29.23;;;9.90;99.90;;;;;;5062309;28;20044;-66
2021/12/15 05:27:30;;;;;;;67.45;30.50;;;9.90;99.90;;;;;;5065551;28;20033;-66
2021/12/15 05:29:57;;;;;;;67.07;29.27;;;9.90;99.90;;;;;;5060556;28;20050;-66
2021/12/15 05:32:23;;;;;;;61.97;29.75;;;9.90;99.90;;;;;;5069280;28;20049;-66
2021/12/15 05:34:52;;;;;;;76.15;31.48;;;9.90;99.90;;;;;;5054161;28;20045;-66
2021/12/15 05:37:18;;;;;;;;;;;9.90;99.90;;;;;;5064362;28;20079;-66
2021/12/15 05:39:45;;;;;;;69.88;29.30;;;9.90;99.90;;;;;;5059364;28;19924;-66
2021/12/15 05:42:12;;;;;;;65.88;29.50;;;9.80;99.90;;;;;;5065613;28;20555;-67
2021/12/15 05:44:38;;;;;;;67.32;30.90;;;9.80;99.90;;;;;;5062358;28;20055;-66
2021/12/15 05:47:05;;;;;;;69.78;31.23;;;9.80;99.90;;;;;;5060815;28;20048;-67
2021/12/15 05:49:31;;;;;;;67.32;29.30;;;9.80;99.90;;;;;;5066858;28;20029;-67
2021/12/15 05:51:57;;;;;;;65.40;29.98;;;9.80;99.90;;;;;;5058309;28;20047;-67
2021/12/15 05:54:23;;;;;;;68.03;30.83;;;10.00;99.90;;;;;;5062927;28;20091;-67
2021/12/15 05:56:49;;;;;;;62.63;29.27;;;9.90;99.90;;;;;;5059937;28;20072;-66
2021/12/15 05:59:15;;;;;;;74.47;29.85;;;9.80;99.90;;;;;;5040656;28;20036;-67
2021/12/15 06:01:41;;;;;;;74.95;30.38;;;9.90;99.90;;;;;;5061318;28;20045;-67
2021/12/15 06:04:07;;;;;;;75.28;30.15;;;9.80;99.90;;;;;;5065805;28;20066;-66
2021/12/15 06:06:34;;;;;;;62.40;28.42;;;9.80;99.90;;;;;;5060304;28;20665;-67
2021/12/15 06:09:00;;;;;;;68.22;30.50;;;9.80;99.90;;;;;;5060927;28;20060;-68
2021/12/15 06:11:26;;;;;;;75.50;31.10;;;9.90;99.90;;;;;;5061332;28;20047;-66
2021/12/15 06:13:53;;;;;;;66.82;29.00;;;9.80;99.90;;;;;;5060677;28;20041;-67
2021/12/15 06:16:21;;;;;;;69.28;28.95;;;9.90;99.90;;;;;;5061093;28;20036;-65
2021/12/15 06:18:48;;;;;;;;;;;9.90;99.90;;;;;;5060686;28;20172;-68
2021/12/15 06:21:15;;;;;;;67.90;29.45;;;9.80;99.90;;;;;;5059241;28;19939;-66
2021/12/15 06:23:42;;;;;;;66.53;29.85;;;9.90;99.90;;;;;;5059086;28;20127;-66
2021/12/15 06:26:08;;;;;;;62.47;28.38;;;9.90;99.90;;;;;;5063831;28;20509;-67
2021/12/15 06:28:36;;;;;;;67.80;28.95;;;9.90;99.90;;;;;;5045361;28;20052;-67
2021/12/15 06:31:06;;;;;;;68.47;29.63;;;9.90;99.90;;;;;;5066876;28;20044;-65
2021/12/15 06:33:33;;;;;;;65.13;29.02;;;9.90;99.90;;;;;;5066720;28;20578;-66
2021/12/15 06:36:01;;;;;;;63.70;28.95;;;9.90;99.90;;;;;;5072524;28;20040;-67
2021/12/15 06:38:30;;;;;;;62.00;28.23;;;9.90;99.90;;;;;;5068971;28;20449;-66
2021/12/15 06:40:57;;;;;;;61.47;29.63;;;9.90;99.90;;;;;;5060619;28;20056;-66
2021/12/15 06:43:24;;;;;;;64.05;29.20;;;9.90;99.90;;;;;;5059519;28;20102;-68
2021/12/15 06:59:16;;;;;;;67.63;28.95;;;9.90;99.90;;;;;;5060712;28;20041;-66
2021/12/15 07:01:42;;;;;;;60.45;26.80;;;10.30;99.90;;;;;;5063014;28;20094;-68
2021/12/15 07:04:07;;;;;;;73.35;28.98;;;9.90;99.90;;;;;;5060911;28;20076;-66
2021/12/15 07:06:33;;;;;;;63.10;26.30;;;10.00;99.90;;;;;;5061033;28;20126;-67
2021/12/15 07:08:59;;;;;;;61.03;27.08;;;10.00;99.90;;;;;;5063047;28;20037;-67
2021/12/15 07:11:25;;;;;;;63.22;27.73;;;10.00;99.90;;;;;;5060714;28;20067;-66
2021/12/15 07:13:51;;;;;;;54.13;27.80;;;10.00;99.90;;;;;;5064309;28;20070;-68
2021/12/15 07:16:19;;;;;;;60.63;26.65;;;10.00;99.90;;;;;;5033743;28;20115;-66
2021/12/15 07:18:53;;;;;;;58.10;26.83;;;10.00;99.90;;;;;;5066190;28;20044;-66
2021/12/15 07:21:23;;;;;;;56.85;25.73;;;10.00;99.90;;;;;;5060944;28;20061;-68
2021/12/15 07:23:51;;;;;;;52.25;24.88;;;10.00;99.90;;;;;;5061043;28;20063;-68
2021/12/15 07:26:17;;;;;;;53.90;25.50;;;10.00;99.90;;;;;;5058666;28;20041;-68
2021/12/15 07:28:44;;;;;;;54.03;24.85;;;10.10;99.90;;;;;;5055820;28;20041;-68
2021/12/15 07:31:12;;;;;;;56.55;25.40;;;10.10;99.90;;;;;;5063886;28;20410;-67
2021/12/15 07:33:38;;;;;;;58.72;24.58;;;10.10;99.90;;;;;;5058468;28;20049;-66
2021/12/15 07:36:05;;;;;;;54.05;24.55;;;10.00;99.90;;;;;;5061914;28;20048;-67
2021/12/15 07:38:31;;;;;;;59.45;26.45;;;10.00;99.90;;;;;;5065987;28;20114;-69
2021/12/15 07:40:57;;;;;;;49.50;23.90;;;10.00;99.90;;;;;;5057396;28;20041;-67
2021/12/15 07:43:26;;;;;;;51.40;24.00;;;10.00;99.90;;;;;;5065040;28;20128;-67
2021/12/15 07:45:57;;;;;;;59.10;23.20;;;10.10;99.90;;;;;;5064827;28;20396;-67
2021/12/15 07:48:26;;;;;;;61.13;24.60;;;10.10;99.90;;;;;;5066613;28;20456;-67
2021/12/15 07:50:56;;;;;;;57.20;23.75;;;10.10;99.90;;;;;;5065767;28;20064;-68
2021/12/15 07:53:22;;;;;;;47.53;23.05;;;10.10;99.90;;;;;;5053611;28;20090;-68
2021/12/15 07:55:49;;;;;;;40.83;22.33;;;10.10;99.90;;;;;;5056320;28;20175;-68
2021/12/15 07:58:15;;;;;;;55.30;22.10;;;10.10;99.90;;;;;;5062237;28;20033;-68
2021/12/15 08:00:42;;;;;;;47.83;22.75;;;10.10;99.90;;;;;;5059867;28;20406;-67
2021/12/15 08:03:08;;;;;;;50.35;21.73;;;10.10;99.90;;;;;;5054638;28;20093;-68
2021/12/15 08:05:36;;;;;;;52.53;21.80;;;10.10;99.90;;;;;;5045829;28;20136;-68
2021/12/15 08:08:02;;;;;;;47.23;21.43;;;10.10;99.90;;;;;;5059166;28;20071;-68
2021/12/15 08:10:27;;;;;;;43.15;21.13;;;10.30;99.90;;;;;;5059317;28;20099;-68
2021/12/15 08:12:53;;;;;;;40.83;20.02;;;10.10;99.90;;;;;;5064701;28;20492;-67
2021/12/15 08:15:20;;;;;;;42.38;20.27;;;10.00;99.90;;;;;;5070034;28;20040;-66
2021/12/15 08:17:51;;;;;;;40.55;19.65;;;10.10;99.90;;;;;;5064492;28;20043;-68
2021/12/15 08:20:20;;;;;;;57.55;19.83;;;10.10;99.90;;;;;;5069698;28;20072;-66
2021/12/15 08:22:46;;;;;;;42.00;18.88;;;10.10;99.90;;;;;;5066352;28;20133;-68
2021/12/15 08:25:14;;;;;;;35.55;17.42;;;10.00;99.90;;;;;;5064636;28;20460;-65
2021/12/15 08:27:41;;;;;;;35.97;16.10;;;10.10;99.90;;;;;;5069186;28;20048;-68
2021/12/15 08:30:11;;;;;;;33.55;15.45;;;10.00;99.90;;;;;;5062757;28;20139;-66
2021/12/15 08:32:39;;;;;;;41.58;14.93;;;10.00;99.90;;;;;;5065422;28;20048;-67
2021/12/15 08:35:05;;;;;;;35.97;16.02;;;10.00;99.90;;;;;;5055618;28;20431;-67
2021/12/15 08:37:31;;;;;;;33.53;15.27;;;10.00;99.90;;;;;;5081978;28;20036;-66
2021/12/15 08:39:57;;;;;;;44.63;15.88;;;10.00;99.90;;;;;;5061341;28;20044;-67
2021/12/15 08:42:22;;;;;;;40.63;16.05;;;10.00;99.90;;;;;;5067914;28;20033;-67
2021/12/15 08:44:48;;;;;;;37.75;15.20;;;10.00;99.90;;;;;;5052549;28;20036;-67
2021/12/15 08:47:14;;;;;;;38.03;15.27;;;9.90;99.90;;;;;;5066069;28;20056;-68
2021/12/15 08:49:39;;;;;;;33.10;16.20;;;10.00;99.90;;;;;;5065534;28;20045;-68
2021/12/15 08:52:06;;;;;;;41.10;16.50;;;10.00;99.90;;;;;;5041073;28;20106;-67
2021/12/15 08:54:33;;;;;;;35.03;17.13;;;10.00;99.90;;;;;;5063624;28;20670;-67
2021/12/15 08:56:58;;;;;;;37.72;17.25;;;10.00;99.90;;;;;;5058024;28;20544;-67
2021/12/15 08:59:24;;;;;;;35.35;17.88;;;10.00;99.90;;;;;;5065381;28;20044;-68
2021/12/15 09:01:53;;;;;;;37.05;16.35;;;10.00;99.90;;;;;;5064460;28;20461;-66
2021/12/15 09:04:19;;;;;;;41.80;17.40;;;10.10;99.90;;;;;;5057846;28;20102;-67
2021/12/15 09:06:47;;;;;;;34.45;15.20;;;10.10;99.90;;;;;;5060518;28;20048;-67
2021/12/15 09:09:15;;;;;;;44.90;16.65;;;10.10;99.90;;;;;;5062945;28;20059;-67
2021/12/15 09:11:41;;;;;;;39.83;17.00;;;10.20;99.90;;;;;;5068712;28;20076;-68
2021/12/15 09:14:10;;;;;;;38.47;16.27;;;10.20;99.90;;;;;;5064638;28;20486;-66
2021/12/15 09:16:36;;;;;;;37.03;15.93;;;10.20;99.90;;;;;;5062250;28;20053;-68
2021/12/15 09:19:04;;;;;;;40.35;14.98;;;10.20;99.90;;;;;;5068465;28;20060;-67
2021/12/15 09:21:31;;;;;;;41.00;15.93;;;10.20;99.90;;;;;;5059305;28;20545;-67
2021/12/15 09:23:58;;;;;;;32.78;15.85;;;10.20;99.90;;;;;;5069473;28;20091;-66
2021/12/15 09:26:25;;;;;;;40.05;16.38;;;10.20;99.90;;;;;;5063977;28;20041;-67
2021/12/15 09:28:51;;;;;;;34.30;15.57;;;10.30;99.90;;;;;;5059443;28;20590;-66
2021/12/15 09:31:16;;;;;;;28.95;14.65;;;10.30;99.90;;;;;;5060732;28;20120;-68
2021/12/15 09:33:48;;;;;;;28.50;14.13;;;10.40;99.90;;;;;;5063984;28;20045;-65
2021/12/15 09:36:16;;;;;;;26.92;13.38;;;10.60;99.90;;;;;;5066479;28;20052;-68
2021/12/15 09:38:44;;;;;;;28.30;13.00;;;10.70;99.90;;;;;;5052273;28;20514;-66
2021/12/15 09:41:12;;;;;;;24.10;12.98;;;10.90;99.90;;;;;;5046687;28;20104;-66
2021/12/15 09:43:39;;;;;;;34.50;13.38;;;11.00;99.90;;;;;;5068342;28;20048;-67
2021/12/15 09:57:16;;;;;;;27.38;12.55;;;10.80;99.90;;;;;;5058234;28;20045;-67
2021/12/15 10:02:42;;;;;;;23.08;11.13;;;10.70;99.90;;;;;;5063491;28;20057;-67
2021/12/15 10:05:24;;;;;;;27.60;11.60;;;10.80;99.90;;;;;;5071472;28;20052;-67
2021/12/15 10:19:26;;;;;;;18.58;9.93;;;10.70;99.90;;;;;;5056744;28;20577;-66
2021/12/15 10:22:21;;;;;;;18.55;10.07;;;10.60;99.90;;;;;;5069059;28;20048;-68
2021/12/15 10:24:52;;;;;;;19.83;9.18;;;10.60;99.90;;;;;;5070439;28;20159;-68
2021/12/15 10:27:53;;;;;;;22.83;11.20;;;10.60;99.90;;;;;;5058478;28;20041;-67
2021/12/15 10:30:30;;;;;;;18.60;9.02;;;10.60;99.90;;;;;;5064124;28;20115;-65
2021/12/15 10:33:02;;;;;;;20.63;9.75;;;10.60;99.90;;;;;;5067828;28;20135;-67
2021/12/15 10:35:38;;;;;;;21.38;9.85;;;10.60;99.90;;;;;;5071847;28;20036;-67
2021/12/15 10:38:15;;;;;;;22.38;11.00;;;10.60;99.90;;;;;;5059649;28;20128;-67
2021/12/15 10:40:50;;;;;;;22.77;10.68;;;10.60;99.90;;;;;;5051351;28;20476;-67
2021/12/15 10:43:16;;;;;;;26.05;11.30;;;10.60;99.90;;;;;;5064088;28;20135;-68
2021/12/15 10:45:50;;;;;;;22.60;10.90;;;10.60;99.90;;;;;;5058248;28;20048;-67
2021/12/15 10:48:37;;;;;;;21.58;11.65;;;10.60;99.90;;;;;;5067609;28;20045;-67
2021/12/15 10:51:19;;;;;;;26.23;11.73;;;10.60;99.90;;;;;;5073081;28;20058;-67
2021/12/15 10:53:45;;;;;;;22.58;11.23;;;10.70;99.90;;;;;;5063587;28;20040;-67
2021/12/15 10:56:17;;;;;;;20.50;10.45;;;10.70;99.90;;;;;;5084485;28;20047;-67
2021/12/15 10:58:50;;;;;;;25.92;11.57;;;10.70;99.90;;;;;;5061808;28;20402;-67
2021/12/15 11:01:37;;;;;;;20.42;10.40;;;10.70;99.90;;;;;;5058483;28;20071;-68
2021/12/15 11:04:33;;;;;;;22.55;11.27;;;10.70;99.90;;;;;;5067338;28;20131;-67
2021/12/15 11:07:15;;;;;;;23.05;10.65;;;10.80;99.90;;;;;;5060947;28;20191;-67
2021/12/15 11:10:13;;;;;;;24.33;10.45;;;10.70;99.90;;;;;;5064288;28;20079;-67
2021/12/15 11:12:43;;;;;;;22.65;10.13;;;10.70;99.90;;;;;;5054815;28;20108;-67
2021/12/15 11:15:22;;;;;;;22.63;10.30;;;10.70;99.90;;;;;;5051174;28;20075;-67
2021/12/15 11:17:55;;;;;;;;;;;10.70;99.90;;;;;;5058215;28;20045;-67
2021/12/15 11:20:24;;;;;;;25.27;10.95;;;10.70;99.90;;;;;;5057116;28;19920;-68
2021/12/15 11:23:00;;;;;;;20.17;9.88;;;10.80;99.90;;;;;;5072503;28;20049;-66
2021/12/15 11:25:50;;;;;;;22.40;11.10;;;10.80;99.90;;;;;;5067881;28;20036;-67
2021/12/15 11:28:22;;;;;;;21.42;10.07;;;10.80;99.90;;;;;;5067220;28;20065;-67
2021/12/15 11:31:03;;;;;;;19.80;10.15;;;10.80;99.90;;;;;;5061589;28;20554;-67
2021/12/15 11:33:37;;;;;;;21.05;9.73;;;10.90;99.90;;;;;;5073319;28;20051;-66
2021/12/15 11:36:21;;;;;;;20.90;9.32;;;10.80;99.90;;;;;;5066591;28;20040;-67
2021/12/15 11:38:51;;;;;;;20.60;9.70;;;10.80;99.90;;;;;;5055549;28;20487;-68
2021/12/15 11:41:23;;;;;;;20.60;9.43;;;10.80;99.90;;;;;;5064703;28;20048;-67
2021/12/15 11:43:51;;;;;;;22.95;9.85;;;10.80;99.90;;;;;;5069139;28;20564;-66
2021/12/15 11:46:28;;;;;;;17.60;9.10;;;10.90;99.90;;;;;;5066344;28;20597;-66
2021/12/15 11:49:22;;;;;;;22.15;8.38;;;11.00;99.90;;;;;;5066157;28;20133;-67
2021/12/15 11:51:50;;;;;;;16.48;7.88;;;11.00;99.90;;;;;;5064974;28;20049;-66
2021/12/15 11:54:38;;;;;;;18.35;8.25;;;11.00;99.90;;;;;;5060669;28;20033;-67
2021/12/15 11:57:25;;;;;;;15.65;7.65;;;11.00;99.90;;;;;;5068872;28;20108;-67
2021/12/15 11:59:58;;;;;;;17.15;6.60;;;11.00;99.90;;;;;;5068584;28;20048;-67
2021/12/15 12:02:30;;;;;;;18.55;6.38;;;11.00;99.90;;;;;;5065707;28;20406;-67
2021/12/15 12:05:02;;;;;;;12.73;5.80;;;11.00;99.90;;;;;;5061436;28;20069;-67
2021/12/15 12:07:27;;;;;;;11.68;4.50;;;11.00;99.90;;;;;;5070700;28;20043;-67
2021/12/15 12:10:01;;;;;;;9.50;4.35;;;11.00;99.90;;;;;;5067500;28;20482;-68
2021/12/15 12:12:34;;;;;;;12.10;4.28;;;11.00;99.90;;;;;;5065221;28;20052;-67
2021/12/15 12:15:00;;;;;;;8.88;4.30;;;11.00;99.90;;;;;;5065807;28;20051;-67
2021/12/15 12:17:33;;;;;;;12.20;5.13;;;11.00;99.90;;;;;;5063731;28;20037;-67
2021/12/15 12:20:04;;;;;;;12.23;4.85;;;11.00;99.90;;;;;;5062424;28;20045;-67
2021/12/15 12:22:31;;;;;;;16.77;4.78;;;10.90;99.90;;;;;;5068696;28;20051;-66
2021/12/15 12:25:00;;;;;;;10.93;4.07;;;10.90;99.90;;;;;;5058661;28;20048;-66
2021/12/15 12:27:29;;;;;;;14.93;3.95;;;10.80;99.90;;;;;;5063876;28;20047;-67
2021/12/15 12:29:58;;;;;;;14.65;4.70;;;10.80;99.90;;;;;;5053829;28;20096;-68
2021/12/15 12:32:24;;;;;;;12.00;4.28;;;10.70;99.90;;;;;;5054934;28;20407;-65
2021/12/15 12:34:52;;;;;;;15.80;4.63;;;10.70;99.90;;;;;;5064211;28;20041;-67
2021/12/15 12:37:18;;;;;;;15.95;4.30;;;10.60;99.90;;;;;;5051965;28;20036;-67
2021/12/15 12:39:53;;;;;;;13.02;4.22;;;10.60;99.90;;;;;;5056282;28;20036;-67
2021/12/15 12:42:40;;;;;;;12.15;4.20;;;10.50;99.90;;;;;;5062199;28;20041;-67
2021/12/15 12:45:38;;;;;;;9.75;4.03;;;10.40;99.90;;;;;;5051207;28;20037;-68
2021/12/15 12:48:46;;;;;;;10.80;4.50;;;10.40;99.90;;;;;;5060573;28;20064;-67
2021/12/15 12:59:37;;;;;;;9.70;4.40;;;10.30;99.90;;;;;;5052976;28;20133;-66
2021/12/15 13:02:10;;;;;;;10.38;3.90;;;10.20;99.90;;;;;;5051157;28;20051;-68
2021/12/15 13:04:41;;;;;;;13.57;4.20;;;10.20;99.90;;;;;;5055570;28;20045;-67
2021/12/15 13:07:07;;;;;;;15.90;4.30;;;10.20;99.90;;;;;;5061570;28;20066;-66
2021/12/15 13:09:47;;;;;;;12.38;4.20;;;10.20;99.90;;;;;;5046928;28;20359;-68
2021/12/15 13:12:20;;;;;;;11.32;4.15;;;10.20;99.90;;;;;;5055229;28;20048;-68
2021/12/15 13:14:46;;;;;;;9.05;3.70;;;10.20;99.90;;;;;;5062266;28;20102;-68
2021/12/15 13:17:20;;;;;;;7.22;3.00;;;10.20;99.90;;;;;;5063883;28;20037;-66
2021/12/15 13:19:46;;;;;;;11.77;3.80;;;10.30;99.90;;;;;;5057098;28;20235;-68
2021/12/15 13:22:43;;;;;;;10.32;3.40;;;10.40;99.90;;;;;;5050172;28;20471;-67
2021/12/15 13:31:09;;;;;;;6.43;2.92;;;10.20;99.90;;;;;;5053685;28;20484;-66
2021/12/15 13:33:36;;;;;;;7.38;2.65;;;10.10;99.90;;;;;;5057465;28;20036;-68
2021/12/15 13:36:25;;;;;;;5.85;2.20;;;10.10;99.90;;;;;;5058912;28;20052;-68
2021/12/15 13:38:58;;;;;;;11.93;2.40;;;10.00;99.90;;;;;;5072574;28;20094;-68
2021/12/15 13:41:40;;;;;;;7.15;2.22;;;9.90;99.90;;;;;;5065446;28;20083;-67
2021/12/15 13:44:39;;;;;;;9.88;2.42;;;9.90;99.90;;;;;;5064430;28;20491;-67
2021/12/15 13:47:07;;;;;;;6.70;2.47;;;9.80;99.90;;;;;;5061056;28;20047;-68
2021/12/15 13:49:45;;;;;;;9.15;2.53;;;9.70;99.90;;;;;;5064234;28;20123;-67
2021/12/15 13:52:34;;;;;;;6.85;2.22;;;9.70;99.90;;;;;;5065553;28;20121;-66
2021/12/15 13:55:21;;;;;;;4.10;2.00;;;9.60;99.90;;;;;;5063795;28;20132;-69
2021/12/15 13:57:46;;;;;;;8.25;2.40;;;9.60;99.90;;;;;;5057726;28;20105;-66
2021/12/15 14:00:23;;;;;;;7.68;2.60;;;9.50;99.90;;;;;;5050373;28;20048;-69
2021/12/15 14:03:00;;;;;;;8.02;1.98;;;9.50;99.90;;;;;;5042992;28;20040;-68
2021/12/15 14:05:40;;;;;;;5.47;2.58;;;9.40;99.90;;;;;;5061295;28;20040;-68
2021/12/15 14:08:19;;;;;;;9.95;1.95;;;9.50;99.90;;;;;;5061080;28;20123;-67
2021/12/15 14:10:50;;;;;;;6.88;2.45;;;9.40;99.90;;;;;;5059323;28;20430;-67
2021/12/15 14:13:17;;;;;;;7.25;2.85;;;9.40;99.90;;;;;;5061137;28;20044;-66
2021/12/15 14:15:45;;;;;;;5.85;2.42;;;9.40;99.90;;;;;;5059575;28;20044;-66